sensor_id;sensor_type;location;lat;lon;timestamp;P1;durP1;ratioP1;P2;durP2;ratioP2
47225;SDS011;32965;64.142;-21.912;2022-10-22T00:00:07;4.37;;;1.27;;
47225;SDS011;32965;64.142;-21.912;2022-10-22T00:02:35;3.10;;;0.70;;
47225;SDS011;32965;64.142;-21.912;2022-10-22T00:05:00;3.00;;;1.07;;
47225;SDS011;32965;64.142;-21.912;2022-10-22T00:07:26;1.47;;;0.90;;
47225;SDS011;32965;64.142;-21.912;2022-10-22T00:09:52;1.97;;;0.70;;
47225;SDS011;32965;64.142;-21.912;2022-10-22T00:12:18;1.37;;;0.53;;
47225;SDS011;32965;64.142;-21.912;2022-10-22T00:14:44;4.73;;;1.00;;
47225;SDS011;32965;64.142;-21.912;2022-10-22T00:17:10;5.37;;;1.67;;
47225;SDS011;32965;64.142;-21.912;2022-10-22T00:19:36;3.63;;;1.27;;
47225;SDS011;32965;64.142;-21.912;2022-10-22T00:22:02;7.47;;;1.03;;
47225;SDS011;32965;64.142;-21.912;2022-10-22T00:24:30;3.23;;;1.07;;
47225;SDS011;32965;64.142;-21.912;2022-10-22T00:26:56;2.87;;;1.00;;
47225;SDS011;32965;64.142;-21.912;2022-10-22T00:29:22;1.97;;;1.10;;
47225;SDS011;32965;64.142;-21.912;2022-10-22T00:31:48;3.93;;;1.00;;
47225;SDS011;32965;64.142;-21.912;2022-10-22T00:34:17;2.63;;;1.00;;
47225;SDS011;32965;64.142;-21.912;2022-10-22T00:36:45;2.13;;;0.90;;
47225;SDS011;32965;64.142;-21.912;2022-10-22T00:39:13;2.67;;;1.03;;
47225;SDS011;32965;64.142;-21.912;2022-10-22T00:41:40;4.57;;;1.00;;
47225;SDS011;32965;64.142;-21.912;2022-10-22T00:44:07;2.77;;;1.20;;
47225;SDS011;32965;64.142;-21.912;2022-10-22T00:47:11;5.40;;;1.10;;
47225;SDS011;32965;64.142;-21.912;2022-10-22T00:49:38;2.17;;;1.00;;
47225;SDS011;32965;64.142;-21.912;2022-10-22T00:52:05;3.97;;;1.20;;
47225;SDS011;32965;64.142;-21.912;2022-10-22T00:54:32;3.20;;;1.37;;
47225;SDS011;32965;64.142;-21.912;2022-10-22T00:56:58;3.77;;;0.80;;
47225;SDS011;32965;64.142;-21.912;2022-10-22T00:59:25;4.30;;;1.20;;
47225;SDS011;32965;64.142;-21.912;2022-10-22T01:01:52;2.07;;;0.97;;
47225;SDS011;32965;64.142;-21.912;2022-10-22T01:04:18;2.53;;;1.17;;
47225;SDS011;32965;64.142;-21.912;2022-10-22T01:06:44;2.00;;;0.93;;
47225;SDS011;32965;64.142;-21.912;2022-10-22T01:09:31;4.43;;;1.20;;
47225;SDS011;32965;64.142;-21.912;2022-10-22T01:15:12;1.63;;;0.57;;
47225;SDS011;32965;64.142;-21.912;2022-10-22T01:23:33;2.07;;;1.00;;
47225;SDS011;32965;64.142;-21.912;2022-10-22T01:26:14;2.90;;;1.23;;
47225;SDS011;32965;64.142;-21.912;2022-10-22T01:28:49;5.07;;;1.10;;
47225;SDS011;32965;64.142;-21.912;2022-10-22T01:31:16;2.60;;;1.03;;
47225;SDS011;32965;64.142;-21.912;2022-10-22T01:33:44;1.40;;;0.90;;
47225;SDS011;32965;64.142;-21.912;2022-10-22T01:36:12;4.20;;;0.98;;
47225;SDS011;32965;64.142;-21.912;2022-10-22T01:38:39;2.63;;;0.97;;
47225;SDS011;32965;64.142;-21.912;2022-10-22T01:41:06;2.47;;;0.80;;
47225;SDS011;32965;64.142;-21.912;2022-10-22T01:43:33;5.10;;;0.70;;
47225;SDS011;32965;64.142;-21.912;2022-10-22T01:45:59;3.20;;;1.50;;
47225;SDS011;32965;64.142;-21.912;2022-10-22T01:53:48;1.37;;;0.50;;
47225;SDS011;32965;64.142;-21.912;2022-10-22T01:59:05;6.07;;;3.23;;
47225;SDS011;32965;64.142;-21.912;2022-10-22T02:04:45;5.90;;;2.22;;
47225;SDS011;32965;64.142;-21.912;2022-10-22T02:07:14;3.70;;;1.27;;
47225;SDS011;32965;64.142;-21.912;2022-10-22T02:09:43;4.07;;;1.57;;
47225;SDS011;32965;64.142;-21.912;2022-10-22T02:12:10;3.10;;;1.10;;
47225;SDS011;32965;64.142;-21.912;2022-10-22T02:14:38;2.00;;;0.73;;
47225;SDS011;32965;64.142;-21.912;2022-10-22T02:17:08;2.37;;;0.93;;
47225;SDS011;32965;64.142;-21.912;2022-10-22T02:19:40;1.07;;;0.63;;
47225;SDS011;32965;64.142;-21.912;2022-10-22T02:22:11;0.83;;;0.40;;
47225;SDS011;32965;64.142;-21.912;2022-10-22T02:24:37;1.00;;;0.60;;
47225;SDS011;32965;64.142;-21.912;2022-10-22T02:27:46;1.13;;;0.47;;
47225;SDS011;32965;64.142;-21.912;2022-10-22T02:30:19;1.83;;;0.70;;
47225;SDS011;32965;64.142;-21.912;2022-10-22T02:33:00;1.93;;;0.60;;
47225;SDS011;32965;64.142;-21.912;2022-10-22T02:35:31;3.00;;;0.50;;
47225;SDS011;32965;64.142;-21.912;2022-10-22T02:37:58;0.70;;;0.40;;
47225;SDS011;32965;64.142;-21.912;2022-10-22T02:40:25;2.27;;;0.60;;
47225;SDS011;32965;64.142;-21.912;2022-10-22T02:42:52;2.37;;;0.70;;
47225;SDS011;32965;64.142;-21.912;2022-10-22T02:45:18;0.90;;;0.50;;
47225;SDS011;32965;64.142;-21.912;2022-10-22T02:47:45;2.03;;;1.07;;
47225;SDS011;32965;64.142;-21.912;2022-10-22T02:50:11;1.97;;;0.70;;
47225;SDS011;32965;64.142;-21.912;2022-10-22T02:52:37;2.27;;;0.80;;
47225;SDS011;32965;64.142;-21.912;2022-10-22T02:55:03;1.27;;;0.80;;
47225;SDS011;32965;64.142;-21.912;2022-10-22T02:57:30;1.27;;;0.63;;
47225;SDS011;32965;64.142;-21.912;2022-10-22T02:59:56;3.50;;;1.07;;
47225;SDS011;32965;64.142;-21.912;2022-10-22T03:02:22;1.27;;;0.70;;
47225;SDS011;32965;64.142;-21.912;2022-10-22T03:04:47;2.90;;;0.83;;
47225;SDS011;32965;64.142;-21.912;2022-10-22T03:07:13;2.27;;;0.80;;
47225;SDS011;32965;64.142;-21.912;2022-10-22T03:09:39;1.33;;;0.97;;
47225;SDS011;32965;64.142;-21.912;2022-10-22T03:12:04;1.50;;;0.80;;
47225;SDS011;32965;64.142;-21.912;2022-10-22T03:14:32;3.37;;;1.13;;
47225;SDS011;32965;64.142;-21.912;2022-10-22T03:16:58;1.97;;;0.83;;
47225;SDS011;32965;64.142;-21.912;2022-10-22T03:19:24;1.87;;;0.93;;
47225;SDS011;32965;64.142;-21.912;2022-10-22T03:21:54;2.50;;;1.43;;
47225;SDS011;32965;64.142;-21.912;2022-10-22T03:24:33;3.33;;;0.90;;
47225;SDS011;32965;64.142;-21.912;2022-10-22T03:27:02;1.65;;;0.73;;
47225;SDS011;32965;64.142;-21.912;2022-10-22T03:29:27;2.17;;;0.83;;
47225;SDS011;32965;64.142;-21.912;2022-10-22T03:31:55;1.57;;;0.80;;
47225;SDS011;32965;64.142;-21.912;2022-10-22T03:34:21;2.87;;;1.03;;
47225;SDS011;32965;64.142;-21.912;2022-10-22T03:36:47;2.00;;;0.90;;
47225;SDS011;32965;64.142;-21.912;2022-10-22T03:39:14;2.73;;;1.00;;
47225;SDS011;32965;64.142;-21.912;2022-10-22T03:41:43;1.90;;;1.20;;
47225;SDS011;32965;64.142;-21.912;2022-10-22T03:44:10;1.30;;;0.80;;
47225;SDS011;32965;64.142;-21.912;2022-10-22T03:46:36;3.17;;;1.07;;
47225;SDS011;32965;64.142;-21.912;2022-10-22T03:49:02;3.47;;;1.03;;
47225;SDS011;32965;64.142;-21.912;2022-10-22T03:51:28;2.40;;;0.80;;
47225;SDS011;32965;64.142;-21.912;2022-10-22T03:53:54;1.13;;;0.77;;
47225;SDS011;32965;64.142;-21.912;2022-10-22T03:56:20;2.47;;;0.90;;
47225;SDS011;32965;64.142;-21.912;2022-10-22T03:58:46;3.07;;;1.10;;
47225;SDS011;32965;64.142;-21.912;2022-10-22T04:01:12;1.90;;;0.83;;
47225;SDS011;32965;64.142;-21.912;2022-10-22T04:03:38;1.77;;;1.00;;
47225;SDS011;32965;64.142;-21.912;2022-10-22T04:06:05;1.90;;;0.90;;
47225;SDS011;32965;64.142;-21.912;2022-10-22T04:08:37;4.70;;;1.07;;
47225;SDS011;32965;64.142;-21.912;2022-10-22T04:11:04;3.20;;;1.25;;
47225;SDS011;32965;64.142;-21.912;2022-10-22T04:13:30;2.03;;;1.30;;
47225;SDS011;32965;64.142;-21.912;2022-10-22T04:16:05;2.70;;;1.00;;
47225;SDS011;32965;64.142;-21.912;2022-10-22T04:18:41;2.50;;;1.27;;
47225;SDS011;32965;64.142;-21.912;2022-10-22T04:21:08;3.27;;;1.30;;
47225;SDS011;32965;64.142;-21.912;2022-10-22T04:23:35;2.90;;;1.40;;
47225;SDS011;32965;64.142;-21.912;2022-10-22T04:26:05;7.50;;;1.23;;
47225;SDS011;32965;64.142;-21.912;2022-10-22T04:28:32;6.27;;;1.30;;
47225;SDS011;32965;64.142;-21.912;2022-10-22T04:30:59;2.53;;;1.10;;
47225;SDS011;32965;64.142;-21.912;2022-10-22T04:33:24;2.03;;;0.87;;
47225;SDS011;32965;64.142;-21.912;2022-10-22T04:35:50;3.43;;;1.53;;
47225;SDS011;32965;64.142;-21.912;2022-10-22T04:38:16;2.47;;;1.40;;
47225;SDS011;32965;64.142;-21.912;2022-10-22T04:40:42;4.00;;;1.63;;
47225;SDS011;32965;64.142;-21.912;2022-10-22T04:43:08;4.20;;;1.77;;
47225;SDS011;32965;64.142;-21.912;2022-10-22T04:45:33;3.90;;;1.50;;
47225;SDS011;32965;64.142;-21.912;2022-10-22T04:48:00;2.77;;;1.33;;
47225;SDS011;32965;64.142;-21.912;2022-10-22T04:50:25;3.87;;;1.43;;
47225;SDS011;32965;64.142;-21.912;2022-10-22T04:52:51;4.30;;;1.40;;
47225;SDS011;32965;64.142;-21.912;2022-10-22T04:55:17;2.43;;;0.93;;
47225;SDS011;32965;64.142;-21.912;2022-10-22T04:57:43;3.00;;;1.20;;
47225;SDS011;32965;64.142;-21.912;2022-10-22T05:00:09;4.47;;;1.13;;
47225;SDS011;32965;64.142;-21.912;2022-10-22T05:02:35;2.80;;;0.97;;
47225;SDS011;32965;64.142;-21.912;2022-10-22T05:05:00;2.63;;;1.30;;
47225;SDS011;32965;64.142;-21.912;2022-10-22T05:07:27;2.97;;;1.20;;
47225;SDS011;32965;64.142;-21.912;2022-10-22T05:09:52;3.27;;;1.20;;
47225;SDS011;32965;64.142;-21.912;2022-10-22T05:12:18;2.50;;;1.00;;
47225;SDS011;32965;64.142;-21.912;2022-10-22T05:14:44;4.53;;;1.50;;
47225;SDS011;32965;64.142;-21.912;2022-10-22T05:17:10;2.57;;;1.37;;
47225;SDS011;32965;64.142;-21.912;2022-10-22T05:19:36;2.57;;;1.17;;
47225;SDS011;32965;64.142;-21.912;2022-10-22T05:22:02;3.23;;;1.27;;
47225;SDS011;32965;64.142;-21.912;2022-10-22T05:24:29;2.33;;;1.47;;
47225;SDS011;32965;64.142;-21.912;2022-10-22T05:26:56;4.20;;;1.60;;
47225;SDS011;32965;64.142;-21.912;2022-10-22T05:29:24;3.27;;;1.10;;
47225;SDS011;32965;64.142;-21.912;2022-10-22T05:31:50;3.20;;;1.60;;
47225;SDS011;32965;64.142;-21.912;2022-10-22T05:34:17;3.03;;;1.17;;
47225;SDS011;32965;64.142;-21.912;2022-10-22T05:36:43;5.23;;;1.60;;
47225;SDS011;32965;64.142;-21.912;2022-10-22T05:39:09;3.87;;;1.30;;
47225;SDS011;32965;64.142;-21.912;2022-10-22T05:41:35;5.07;;;1.27;;
47225;SDS011;32965;64.142;-21.912;2022-10-22T05:44:00;4.33;;;1.80;;
47225;SDS011;32965;64.142;-21.912;2022-10-22T05:46:27;2.73;;;1.13;;
47225;SDS011;32965;64.142;-21.912;2022-10-22T05:48:55;3.77;;;1.30;;
47225;SDS011;32965;64.142;-21.912;2022-10-22T05:51:27;4.97;;;1.67;;
47225;SDS011;32965;64.142;-21.912;2022-10-22T05:53:58;3.75;;;1.55;;
47225;SDS011;32965;64.142;-21.912;2022-10-22T05:56:26;2.87;;;1.47;;
47225;SDS011;32965;64.142;-21.912;2022-10-22T05:58:53;3.03;;;1.77;;
47225;SDS011;32965;64.142;-21.912;2022-10-22T06:01:26;2.10;;;1.20;;
47225;SDS011;32965;64.142;-21.912;2022-10-22T06:04:00;4.77;;;1.90;;
47225;SDS011;32965;64.142;-21.912;2022-10-22T06:08:54;6.33;;;2.20;;
47225;SDS011;32965;64.142;-21.912;2022-10-22T06:11:23;3.23;;;1.60;;
47225;SDS011;32965;64.142;-21.912;2022-10-22T06:13:49;5.03;;;1.97;;
47225;SDS011;32965;64.142;-21.912;2022-10-22T06:16:16;4.47;;;2.03;;
47225;SDS011;32965;64.142;-21.912;2022-10-22T06:18:42;4.80;;;1.80;;
47225;SDS011;32965;64.142;-21.912;2022-10-22T06:21:12;3.43;;;1.63;;
47225;SDS011;32965;64.142;-21.912;2022-10-22T06:23:39;3.43;;;1.60;;
47225;SDS011;32965;64.142;-21.912;2022-10-22T06:26:08;4.22;;;1.65;;
47225;SDS011;32965;64.142;-21.912;2022-10-22T06:28:35;4.37;;;1.93;;
47225;SDS011;32965;64.142;-21.912;2022-10-22T06:31:01;4.57;;;2.00;;
47225;SDS011;32965;64.142;-21.912;2022-10-22T06:33:31;6.90;;;1.83;;
47225;SDS011;32965;64.142;-21.912;2022-10-22T06:36:11;4.90;;;1.70;;
47225;SDS011;32965;64.142;-21.912;2022-10-22T06:38:38;4.40;;;1.93;;
47225;SDS011;32965;64.142;-21.912;2022-10-22T06:41:05;6.30;;;1.77;;
47225;SDS011;32965;64.142;-21.912;2022-10-22T06:43:35;4.57;;;2.00;;
47225;SDS011;32965;64.142;-21.912;2022-10-22T06:46:02;5.17;;;2.50;;
47225;SDS011;32965;64.142;-21.912;2022-10-22T06:48:31;3.73;;;1.60;;
47225;SDS011;32965;64.142;-21.912;2022-10-22T06:51:01;5.87;;;1.97;;
47225;SDS011;32965;64.142;-21.912;2022-10-22T06:53:32;4.27;;;1.80;;
47225;SDS011;32965;64.142;-21.912;2022-10-22T06:55:58;5.17;;;2.27;;
47225;SDS011;32965;64.142;-21.912;2022-10-22T06:58:28;6.57;;;2.40;;
47225;SDS011;32965;64.142;-21.912;2022-10-22T07:01:04;7.27;;;1.80;;
47225;SDS011;32965;64.142;-21.912;2022-10-22T07:03:34;5.20;;;1.53;;
47225;SDS011;32965;64.142;-21.912;2022-10-22T07:06:00;4.13;;;1.60;;
47225;SDS011;32965;64.142;-21.912;2022-10-22T07:08:27;4.23;;;1.33;;
47225;SDS011;32965;64.142;-21.912;2022-10-22T07:10:53;6.57;;;1.53;;
47225;SDS011;32965;64.142;-21.912;2022-10-22T07:13:19;4.33;;;1.63;;
47225;SDS011;32965;64.142;-21.912;2022-10-22T07:15:45;2.87;;;1.50;;
47225;SDS011;32965;64.142;-21.912;2022-10-22T07:18:17;3.30;;;1.57;;
47225;SDS011;32965;64.142;-21.912;2022-10-22T07:20:43;4.30;;;1.40;;
47225;SDS011;32965;64.142;-21.912;2022-10-22T07:23:08;3.10;;;1.30;;
47225;SDS011;32965;64.142;-21.912;2022-10-22T07:25:34;2.10;;;1.20;;
47225;SDS011;32965;64.142;-21.912;2022-10-22T07:28:00;2.77;;;1.27;;
47225;SDS011;32965;64.142;-21.912;2022-10-22T07:30:25;4.60;;;1.60;;
47225;SDS011;32965;64.142;-21.912;2022-10-22T07:32:51;5.23;;;1.83;;
47225;SDS011;32965;64.142;-21.912;2022-10-22T07:35:17;4.43;;;1.27;;
47225;SDS011;32965;64.142;-21.912;2022-10-22T07:37:42;3.07;;;1.17;;
47225;SDS011;32965;64.142;-21.912;2022-10-22T07:40:08;8.53;;;2.77;;
47225;SDS011;32965;64.142;-21.912;2022-10-22T07:42:34;6.67;;;2.37;;
47225;SDS011;32965;64.142;-21.912;2022-10-22T07:45:00;3.63;;;1.37;;
47225;SDS011;32965;64.142;-21.912;2022-10-22T07:47:26;4.63;;;1.57;;
47225;SDS011;32965;64.142;-21.912;2022-10-22T07:49:51;3.47;;;1.47;;
47225;SDS011;32965;64.142;-21.912;2022-10-22T07:52:17;4.93;;;1.30;;
47225;SDS011;32965;64.142;-21.912;2022-10-22T07:54:43;2.17;;;1.00;;
47225;SDS011;32965;64.142;-21.912;2022-10-22T07:57:09;3.03;;;1.07;;
47225;SDS011;32965;64.142;-21.912;2022-10-22T07:59:34;2.87;;;0.60;;
47225;SDS011;32965;64.142;-21.912;2022-10-22T08:02:00;1.57;;;0.80;;
47225;SDS011;32965;64.142;-21.912;2022-10-22T08:04:26;3.73;;;1.00;;
47225;SDS011;32965;64.142;-21.912;2022-10-22T08:06:51;3.77;;;1.33;;
47225;SDS011;32965;64.142;-21.912;2022-10-22T08:09:17;1.93;;;0.70;;
47225;SDS011;32965;64.142;-21.912;2022-10-22T08:11:43;2.43;;;1.40;;
47225;SDS011;32965;64.142;-21.912;2022-10-22T08:14:09;1.97;;;0.63;;
47225;SDS011;32965;64.142;-21.912;2022-10-22T08:16:35;4.70;;;1.00;;
47225;SDS011;32965;64.142;-21.912;2022-10-22T08:19:01;2.10;;;0.73;;
47225;SDS011;32965;64.142;-21.912;2022-10-22T08:21:26;1.67;;;0.60;;
47225;SDS011;32965;64.142;-21.912;2022-10-22T08:23:53;3.03;;;1.17;;
47225;SDS011;32965;64.142;-21.912;2022-10-22T08:26:19;3.17;;;1.03;;
47225;SDS011;32965;64.142;-21.912;2022-10-22T08:28:44;4.20;;;1.07;;
47225;SDS011;32965;64.142;-21.912;2022-10-22T08:31:10;2.57;;;0.90;;
47225;SDS011;32965;64.142;-21.912;2022-10-22T08:33:36;4.13;;;0.93;;
47225;SDS011;32965;64.142;-21.912;2022-10-22T08:36:03;4.80;;;0.90;;
47225;SDS011;32965;64.142;-21.912;2022-10-22T08:38:29;5.30;;;1.00;;
47225;SDS011;32965;64.142;-21.912;2022-10-22T08:41:39;3.53;;;1.50;;
47225;SDS011;32965;64.142;-21.912;2022-10-22T08:43:58;2.13;;;0.53;;
47225;SDS011;32965;64.142;-21.912;2022-10-22T08:49:30;3.37;;;0.70;;
47225;SDS011;32965;64.142;-21.912;2022-10-22T08:51:59;2.03;;;0.90;;
47225;SDS011;32965;64.142;-21.912;2022-10-22T09:04:55;2.17;;;0.83;;
47225;SDS011;32965;64.142;-21.912;2022-10-22T09:07:39;3.73;;;0.70;;
47225;SDS011;32965;64.142;-21.912;2022-10-22T09:10:07;2.93;;;1.23;;
47225;SDS011;32965;64.142;-21.912;2022-10-22T09:12:35;6.85;;;1.90;;
47225;SDS011;32965;64.142;-21.912;2022-10-22T09:15:01;5.43;;;0.83;;
47225;SDS011;32965;64.142;-21.912;2022-10-22T09:17:35;3.43;;;0.80;;
47225;SDS011;32965;64.142;-21.912;2022-10-22T09:20:13;1.97;;;0.67;;
47225;SDS011;32965;64.142;-21.912;2022-10-22T09:25:55;3.23;;;0.70;;
47225;SDS011;32965;64.142;-21.912;2022-10-22T09:28:21;2.23;;;0.80;;
47225;SDS011;32965;64.142;-21.912;2022-10-22T09:30:47;2.47;;;0.70;;
47225;SDS011;32965;64.142;-21.912;2022-10-22T09:33:14;1.37;;;0.87;;
47225;SDS011;32965;64.142;-21.912;2022-10-22T09:35:55;1.60;;;0.67;;
47225;SDS011;32965;64.142;-21.912;2022-10-22T09:38:28;3.70;;;1.60;;
47225;SDS011;32965;64.142;-21.912;2022-10-22T09:40:56;2.70;;;1.10;;
47225;SDS011;32965;64.142;-21.912;2022-10-22T09:43:24;2.80;;;1.10;;
47225;SDS011;32965;64.142;-21.912;2022-10-22T09:45:56;4.27;;;1.10;;
47225;SDS011;32965;64.142;-21.912;2022-10-22T09:48:42;3.47;;;1.10;;
47225;SDS011;32965;64.142;-21.912;2022-10-22T09:54:18;1.67;;;0.60;;
47225;SDS011;32965;64.142;-21.912;2022-10-22T09:56:51;4.07;;;0.80;;
47225;SDS011;32965;64.142;-21.912;2022-10-22T09:59:31;6.10;;;1.00;;
47225;SDS011;32965;64.142;-21.912;2022-10-22T10:02:23;3.00;;;0.93;;
47225;SDS011;32965;64.142;-21.912;2022-10-22T10:04:49;3.00;;;1.00;;
47225;SDS011;32965;64.142;-21.912;2022-10-22T10:07:21;4.03;;;1.35;;
47225;SDS011;32965;64.142;-21.912;2022-10-22T10:09:54;2.47;;;1.00;;
47225;SDS011;32965;64.142;-21.912;2022-10-22T10:39:02;12.93;;;2.10;;
47225;SDS011;32965;64.142;-21.912;2022-10-22T10:42:09;9.13;;;1.80;;
47225;SDS011;32965;64.142;-21.912;2022-10-22T10:44:32;4.37;;;1.77;;
47225;SDS011;32965;64.142;-21.912;2022-10-22T10:49:53;7.63;;;2.17;;
47225;SDS011;32965;64.142;-21.912;2022-10-22T10:52:43;3.60;;;1.33;;
47225;SDS011;32965;64.142;-21.912;2022-10-22T10:55:29;2.67;;;1.20;;
47225;SDS011;32965;64.142;-21.912;2022-10-22T10:58:14;5.90;;;0.87;;
47225;SDS011;32965;64.142;-21.912;2022-10-22T11:00:55;6.07;;;1.47;;
47225;SDS011;32965;64.142;-21.912;2022-10-22T11:06:18;3.80;;;0.97;;
47225;SDS011;32965;64.142;-21.912;2022-10-22T11:17:03;5.93;;;1.37;;
47225;SDS011;32965;64.142;-21.912;2022-10-22T11:27:10;7.77;;;1.50;;
47225;SDS011;32965;64.142;-21.912;2022-10-22T11:30:00;5.90;;;1.70;;
47225;SDS011;32965;64.142;-21.912;2022-10-22T11:32:36;8.53;;;2.03;;
47225;SDS011;32965;64.142;-21.912;2022-10-22T11:35:04;6.30;;;1.63;;
47225;SDS011;32965;64.142;-21.912;2022-10-22T11:37:35;3.43;;;1.50;;
47225;SDS011;32965;64.142;-21.912;2022-10-22T11:40:16;7.87;;;2.30;;
47225;SDS011;32965;64.142;-21.912;2022-10-22T11:42:57;6.43;;;2.23;;
47225;SDS011;32965;64.142;-21.912;2022-10-22T11:45:29;7.93;;;2.53;;
47225;SDS011;32965;64.142;-21.912;2022-10-22T11:55:42;4.13;;;1.77;;
47225;SDS011;32965;64.142;-21.912;2022-10-22T12:03:49;5.73;;;1.90;;
47225;SDS011;32965;64.142;-21.912;2022-10-22T12:06:23;3.63;;;1.67;;
47225;SDS011;32965;64.142;-21.912;2022-10-22T12:21:59;3.50;;;1.43;;
47225;SDS011;32965;64.142;-21.912;2022-10-22T12:24:41;3.80;;;1.00;;
47225;SDS011;32965;64.142;-21.912;2022-10-22T12:27:17;2.43;;;0.80;;
47225;SDS011;32965;64.142;-21.912;2022-10-22T12:29:54;4.30;;;1.00;;
47225;SDS011;32965;64.142;-21.912;2022-10-22T12:32:21;2.37;;;0.90;;
47225;SDS011;32965;64.142;-21.912;2022-10-22T12:34:48;1.73;;;1.43;;
47225;SDS011;32965;64.142;-21.912;2022-10-22T12:37:16;3.55;;;0.68;;
47225;SDS011;32965;64.142;-21.912;2022-10-22T12:39:43;1.03;;;0.50;;
47225;SDS011;32965;64.142;-21.912;2022-10-22T12:42:14;3.10;;;0.63;;
47225;SDS011;32965;64.142;-21.912;2022-10-22T12:44:44;0.93;;;0.63;;
47225;SDS011;32965;64.142;-21.912;2022-10-22T12:47:16;3.60;;;0.98;;
47225;SDS011;32965;64.142;-21.912;2022-10-22T12:49:44;1.77;;;0.93;;
47225;SDS011;32965;64.142;-21.912;2022-10-22T12:52:17;4.63;;;1.03;;
47225;SDS011;32965;64.142;-21.912;2022-10-22T12:54:45;5.10;;;1.00;;
47225;SDS011;32965;64.142;-21.912;2022-10-22T12:57:14;4.20;;;0.87;;
47225;SDS011;32965;64.142;-21.912;2022-10-22T12:59:42;4.40;;;1.65;;
47225;SDS011;32965;64.142;-21.912;2022-10-22T13:02:23;5.27;;;1.03;;
47225;SDS011;32965;64.142;-21.912;2022-10-22T13:07:51;1.37;;;0.80;;
47225;SDS011;32965;64.142;-21.912;2022-10-22T13:10:22;3.43;;;0.60;;
47225;SDS011;32965;64.142;-21.912;2022-10-22T13:12:51;3.93;;;1.00;;
47225;SDS011;32965;64.142;-21.912;2022-10-22T13:18:00;2.40;;;0.50;;
47225;SDS011;32965;64.142;-21.912;2022-10-22T13:20:53;4.10;;;0.90;;
47225;SDS011;32965;64.142;-21.912;2022-10-22T13:23:30;3.10;;;0.70;;
47225;SDS011;32965;64.142;-21.912;2022-10-22T13:25:58;1.93;;;1.10;;
47225;SDS011;32965;64.142;-21.912;2022-10-22T13:28:33;3.27;;;1.03;;
47225;SDS011;32965;64.142;-21.912;2022-10-22T13:31:00;1.83;;;0.60;;
47225;SDS011;32965;64.142;-21.912;2022-10-22T13:33:33;4.00;;;0.90;;
47225;SDS011;32965;64.142;-21.912;2022-10-22T13:36:02;3.55;;;1.10;;
47225;SDS011;32965;64.142;-21.912;2022-10-22T13:38:28;4.80;;;1.40;;
47225;SDS011;32965;64.142;-21.912;2022-10-22T13:40:55;1.50;;;0.60;;
47225;SDS011;32965;64.142;-21.912;2022-10-22T13:43:21;3.80;;;0.50;;
47225;SDS011;32965;64.142;-21.912;2022-10-22T13:45:51;3.93;;;0.80;;
47225;SDS011;32965;64.142;-21.912;2022-10-22T13:48:19;3.30;;;0.50;;
47225;SDS011;32965;64.142;-21.912;2022-10-22T13:50:48;2.80;;;0.70;;
47225;SDS011;32965;64.142;-21.912;2022-10-22T13:53:14;1.20;;;0.37;;
47225;SDS011;32965;64.142;-21.912;2022-10-22T13:55:43;3.72;;;0.90;;
47225;SDS011;32965;64.142;-21.912;2022-10-22T13:58:10;2.30;;;0.67;;
47225;SDS011;32965;64.142;-21.912;2022-10-22T14:00:44;4.23;;;0.70;;
47225;SDS011;32965;64.142;-21.912;2022-10-22T14:03:14;0.83;;;0.50;;
47225;SDS011;32965;64.142;-21.912;2022-10-22T14:05:42;3.23;;;0.83;;
47225;SDS011;32965;64.142;-21.912;2022-10-22T14:08:11;5.88;;;1.27;;
47225;SDS011;32965;64.142;-21.912;2022-10-22T14:10:39;3.33;;;0.80;;
47225;SDS011;32965;64.142;-21.912;2022-10-22T14:13:15;2.27;;;1.13;;
47225;SDS011;32965;64.142;-21.912;2022-10-22T14:15:43;3.30;;;0.60;;
47225;SDS011;32965;64.142;-21.912;2022-10-22T14:18:14;4.23;;;0.73;;
47225;SDS011;32965;64.142;-21.912;2022-10-22T14:20:50;2.63;;;0.30;;
47225;SDS011;32965;64.142;-21.912;2022-10-22T14:23:21;3.23;;;0.60;;
47225;SDS011;32965;64.142;-21.912;2022-10-22T14:25:49;5.47;;;0.75;;
47225;SDS011;32965;64.142;-21.912;2022-10-22T14:28:17;4.28;;;1.98;;
47225;SDS011;32965;64.142;-21.912;2022-10-22T14:30:43;4.40;;;0.63;;
47225;SDS011;32965;64.142;-21.912;2022-10-22T14:33:16;3.53;;;0.80;;
47225;SDS011;32965;64.142;-21.912;2022-10-22T14:35:48;3.35;;;0.70;;
47225;SDS011;32965;64.142;-21.912;2022-10-22T14:38:14;1.93;;;0.90;;
47225;SDS011;32965;64.142;-21.912;2022-10-22T14:40:40;1.90;;;0.77;;
47225;SDS011;32965;64.142;-21.912;2022-10-22T14:43:20;2.40;;;0.90;;
47225;SDS011;32965;64.142;-21.912;2022-10-22T14:45:48;3.10;;;0.97;;
47225;SDS011;32965;64.142;-21.912;2022-10-22T14:48:14;4.10;;;0.50;;
47225;SDS011;32965;64.142;-21.912;2022-10-22T14:50:40;1.33;;;0.90;;
47225;SDS011;32965;64.142;-21.912;2022-10-22T14:53:07;1.40;;;0.60;;
47225;SDS011;32965;64.142;-21.912;2022-10-22T14:55:32;4.67;;;0.70;;
47225;SDS011;32965;64.142;-21.912;2022-10-22T14:57:58;3.60;;;0.73;;
47225;SDS011;32965;64.142;-21.912;2022-10-22T15:00:24;3.97;;;0.70;;
47225;SDS011;32965;64.142;-21.912;2022-10-22T15:02:50;3.10;;;1.23;;
47225;SDS011;32965;64.142;-21.912;2022-10-22T15:05:15;2.70;;;0.50;;
47225;SDS011;32965;64.142;-21.912;2022-10-22T15:07:42;4.90;;;0.80;;
47225;SDS011;32965;64.142;-21.912;2022-10-22T15:10:08;3.07;;;0.87;;
47225;SDS011;32965;64.142;-21.912;2022-10-22T15:12:35;4.73;;;1.10;;
47225;SDS011;32965;64.142;-21.912;2022-10-22T15:15:01;6.90;;;1.30;;
47225;SDS011;32965;64.142;-21.912;2022-10-22T15:17:27;9.03;;;0.90;;
47225;SDS011;32965;64.142;-21.912;2022-10-22T15:19:53;3.27;;;1.27;;
47225;SDS011;32965;64.142;-21.912;2022-10-22T15:22:20;4.53;;;1.37;;
47225;SDS011;32965;64.142;-21.912;2022-10-22T15:24:46;6.57;;;1.33;;
47225;SDS011;32965;64.142;-21.912;2022-10-22T15:27:13;6.53;;;1.27;;
47225;SDS011;32965;64.142;-21.912;2022-10-22T15:29:40;10.00;;;1.70;;
47225;SDS011;32965;64.142;-21.912;2022-10-22T15:32:07;8.17;;;1.37;;
47225;SDS011;32965;64.142;-21.912;2022-10-22T15:34:36;2.23;;;0.87;;
47225;SDS011;32965;64.142;-21.912;2022-10-22T15:37:04;1.90;;;0.70;;
47225;SDS011;32965;64.142;-21.912;2022-10-22T15:39:32;2.85;;;0.68;;
47225;SDS011;32965;64.142;-21.912;2022-10-22T15:41:58;3.80;;;1.10;;
47225;SDS011;32965;64.142;-21.912;2022-10-22T15:44:28;5.37;;;1.00;;
47225;SDS011;32965;64.142;-21.912;2022-10-22T15:46:55;3.90;;;1.00;;
47225;SDS011;32965;64.142;-21.912;2022-10-22T15:49:22;3.43;;;0.80;;
47225;SDS011;32965;64.142;-21.912;2022-10-22T15:51:49;3.67;;;1.40;;
47225;SDS011;32965;64.142;-21.912;2022-10-22T15:54:16;4.63;;;1.33;;
47225;SDS011;32965;64.142;-21.912;2022-10-22T15:56:43;4.97;;;1.03;;
47225;SDS011;32965;64.142;-21.912;2022-10-22T15:59:10;3.33;;;1.07;;
47225;SDS011;32965;64.142;-21.912;2022-10-22T16:01:37;4.87;;;1.87;;
47225;SDS011;32965;64.142;-21.912;2022-10-22T16:04:03;3.60;;;1.63;;
47225;SDS011;32965;64.142;-21.912;2022-10-22T16:06:33;6.87;;;1.30;;
47225;SDS011;32965;64.142;-21.912;2022-10-22T16:09:00;6.40;;;0.90;;
47225;SDS011;32965;64.142;-21.912;2022-10-22T16:11:28;4.82;;;1.23;;
47225;SDS011;32965;64.142;-21.912;2022-10-22T16:13:55;4.33;;;0.83;;
47225;SDS011;32965;64.142;-21.912;2022-10-22T16:16:22;2.97;;;0.70;;
47225;SDS011;32965;64.142;-21.912;2022-10-22T16:18:49;1.90;;;0.80;;
47225;SDS011;32965;64.142;-21.912;2022-10-22T16:21:15;5.30;;;1.10;;
47225;SDS011;32965;64.142;-21.912;2022-10-22T16:23:42;3.00;;;1.03;;
47225;SDS011;32965;64.142;-21.912;2022-10-22T16:26:08;4.07;;;1.07;;
47225;SDS011;32965;64.142;-21.912;2022-10-22T16:28:34;11.33;;;1.63;;
47225;SDS011;32965;64.142;-21.912;2022-10-22T16:31:01;6.10;;;1.27;;
47225;SDS011;32965;64.142;-21.912;2022-10-22T16:33:27;4.07;;;1.50;;